Time;durP1;ratioP1;P1;durP2;ratioP2;P2;SDS_P1;SDS_P2;PMS_P1;PMS_P2;Temp;Humidity;BMP_temperature;BMP_pressure;BME280_temperature;BME280_humidity;BME280_pressure;Samples;Min_cycle;Max_cycle;Signal;HPM_P1;HPM_P2
2023/12/03 00:02:07;;;;;;;11.55;6.82;;;0.00;99.90;;;;;;5094888;28;20093;-68
2023/12/03 00:04:34;;;;;;;10.63;6.72;;;0.00;99.90;;;;;;5093653;28;20512;-68
2023/12/03 00:07:01;;;;;;;13.48;6.32;;;0.00;99.90;;;;;;5095064;28;20112;-68
2023/12/03 00:09:28;;;;;;;12.93;7.25;;;0.10;99.90;;;;;;5095306;28;20044;-68
2023/12/03 00:11:54;;;;;;;11.95;6.78;;;0.10;99.90;;;;;;5094968;28;20072;-67
2023/12/03 00:14:21;;;;;;;14.00;6.95;;;0.10;99.90;;;;;;5094660;28;20036;-68
2023/12/03 00:16:49;;;;;;;10.68;6.93;;;0.10;99.90;;;;;;5094739;28;20078;-68
2023/12/03 00:19:15;;;;;;;10.57;7.53;;;0.20;99.90;;;;;;5093124;28;20051;-68
2023/12/03 00:21:42;;;;;;;12.63;7.25;;;0.20;99.90;;;;;;5094515;28;20044;-68
2023/12/03 00:24:09;;;;;;;10.80;6.68;;;0.20;99.90;;;;;;5094747;28;20066;-68
2023/12/03 00:26:36;;;;;;;12.10;7.35;;;0.30;99.90;;;;;;5093249;28;20529;-67
2023/12/03 00:29:03;;;;;;;10.75;6.50;;;0.30;99.90;;;;;;5093433;28;20062;-67
2023/12/03 00:31:29;;;;;;;13.00;7.72;;;0.40;99.90;;;;;;5094468;28;20040;-67
2023/12/03 00:33:56;;;;;;;12.75;8.35;;;0.40;99.90;;;;;;5094385;28;20044;-73
2023/12/03 00:36:23;;;;;;;11.52;7.10;;;0.50;99.90;;;;;;5094774;28;20032;-73
2023/12/03 00:38:50;;;;;;;12.00;7.32;;;0.50;99.90;;;;;;5093979;28;20115;-73
2023/12/03 00:41:17;;;;;;;13.55;7.95;;;0.50;99.90;;;;;;5093968;28;20048;-72
2023/12/03 00:43:44;;;;;;;13.57;8.25;;;0.50;99.90;;;;;;5094333;28;20040;-72
2023/12/03 00:46:11;;;;;;;11.75;7.47;;;0.60;99.90;;;;;;5094112;28;20036;-73
2023/12/03 00:48:37;;;;;;;11.77;7.47;;;0.60;99.90;;;;;;5094257;28;20062;-72
2023/12/03 00:51:04;;;;;;;12.70;7.82;;;0.60;99.90;;;;;;5094398;28;20054;-72
2023/12/03 00:53:31;;;;;;;11.88;7.65;;;0.70;99.90;;;;;;5094308;28;20366;-72
2023/12/03 00:55:58;;;;;;;11.93;7.45;;;0.70;99.90;;;;;;5093997;28;20493;-73
2023/12/03 00:58:25;;;;;;;14.50;8.32;;;0.70;99.90;;;;;;5094147;28;20075;-72
2023/12/03 01:00:52;;;;;;;13.82;8.27;;;0.70;99.90;;;;;;5094244;28;20036;-72
2023/12/03 01:03:18;;;;;;;10.63;7.63;;;0.70;99.90;;;;;;5093982;28;20040;-72
2023/12/03 01:05:45;;;;;;;14.70;7.75;;;0.70;99.90;;;;;;5092845;28;20135;-72
2023/12/03 01:08:12;;;;;;;14.77;8.82;;;0.70;99.90;;;;;;5094008;28;20040;-68
2023/12/03 01:10:39;;;;;;;13.23;7.82;;;0.70;99.90;;;;;;5093128;28;20043;-69
2023/12/03 01:13:06;;;;;;;12.27;8.15;;;0.70;99.90;;;;;;5093889;28;20047;-68
2023/12/03 01:15:32;;;;;;;14.70;8.52;;;0.70;99.90;;;;;;5093972;28;20036;-68
2023/12/03 01:17:59;;;;;;;12.98;8.32;;;0.70;99.90;;;;;;5092871;28;20052;-68
2023/12/03 01:20:26;;;;;;;12.50;8.60;;;0.70;99.90;;;;;;5094026;28;20044;-68
2023/12/03 01:22:54;;;;;;;13.15;8.48;;;0.70;99.90;;;;;;5094050;28;20044;-68
2023/12/03 01:25:21;;;;;;;13.65;8.75;;;0.70;99.90;;;;;;5093651;28;20040;-68
2023/12/03 01:27:48;;;;;;;14.57;9.23;;;0.80;99.90;;;;;;5093299;28;20047;-68
2023/12/03 01:30:14;;;;;;;13.80;8.50;;;0.80;99.90;;;;;;5093173;28;20132;-67
2023/12/03 01:32:41;;;;;;;14.93;9.38;;;0.80;99.90;;;;;;5093626;28;20487;-67
2023/12/03 01:35:08;;;;;;;13.25;9.15;;;0.80;99.90;;;;;;5093391;28;20461;-67
2023/12/03 01:37:35;;;;;;;13.35;8.95;;;0.80;99.90;;;;;;5093315;28;20477;-68
2023/12/03 01:40:02;;;;;;;12.50;8.10;;;0.80;99.90;;;;;;5091469;28;20454;-67
2023/12/03 01:42:29;;;;;;;14.43;8.73;;;0.80;99.90;;;;;;5093229;28;20067;-68
2023/12/03 01:44:56;;;;;;;13.07;8.93;;;0.90;99.90;;;;;;5093753;28;20051;-67
2023/12/03 01:47:22;;;;;;;13.55;9.18;;;0.90;99.90;;;;;;5093187;28;20046;-67
2023/12/03 01:49:49;;;;;;;16.30;8.82;;;0.90;99.90;;;;;;5093355;28;20127;-67
2023/12/03 01:52:16;;;;;;;15.50;8.98;;;0.90;99.90;;;;;;5093139;28;20064;-67
2023/12/03 01:54:43;;;;;;;11.60;8.18;;;0.90;99.90;;;;;;5091812;28;20100;-67
2023/12/03 01:57:10;;;;;;;14.05;8.48;;;1.00;99.90;;;;;;5093794;28;20082;-68
2023/12/03 01:59:36;;;;;;;12.40;8.15;;;1.00;99.90;;;;;;5091814;28;20131;-68
2023/12/03 02:02:03;;;;;;;12.27;8.13;;;1.00;99.90;;;;;;5093553;28;20046;-72
2023/12/03 02:04:30;;;;;;;14.73;8.38;;;1.10;99.90;;;;;;5093050;28;20127;-72
2023/12/03 02:06:57;;;;;;;15.02;8.30;;;1.10;99.90;;;;;;5092838;28;20532;-68
2023/12/03 02:09:24;;;;;;;11.07;8.25;;;1.10;99.90;;;;;;5093109;28;20435;-68
2023/12/03 02:11:50;;;;;;;12.77;8.27;;;1.10;99.90;;;;;;5093085;28;20062;-72
2023/12/03 02:14:17;;;;;;;11.73;7.70;;;1.10;99.90;;;;;;5093576;28;20404;-72
2023/12/03 02:16:45;;;;;;;16.48;9.07;;;1.10;99.90;;;;;;5092988;28;20123;-72
2023/12/03 02:19:11;;;;;;;17.90;8.65;;;1.10;99.90;;;;;;5092837;28;20036;-72
2023/12/03 02:21:38;;;;;;;12.10;8.10;;;1.10;99.90;;;;;;5093261;28;20068;-72
2023/12/03 02:24:05;;;;;;;12.57;8.52;;;1.10;99.90;;;;;;5093695;28;20044;-72
2023/12/03 02:26:32;;;;;;;14.35;9.50;;;1.20;99.90;;;;;;5093168;28;20046;-72
2023/12/03 02:28:58;;;;;;;13.02;8.50;;;1.20;99.90;;;;;;5092732;28;20044;-72
2023/12/03 02:31:25;;;;;;;12.73;8.05;;;1.20;99.90;;;;;;5091752;28;20044;-67
2023/12/03 02:33:52;;;;;;;14.35;8.45;;;1.20;99.90;;;;;;5092611;28;20032;-67
2023/12/03 02:36:19;;;;;;;12.80;7.97;;;1.30;99.90;;;;;;5091813;28;20456;-67
2023/12/03 02:38:46;;;;;;;15.93;8.75;;;1.30;99.90;;;;;;5093106;28;20115;-68
2023/12/03 02:41:12;;;;;;;14.55;8.57;;;1.30;99.90;;;;;;5092388;28;20052;-67
2023/12/03 02:43:39;;;;;;;15.95;8.55;;;1.30;99.90;;;;;;5093228;28;20057;-67
2023/12/03 02:46:06;;;;;;;11.93;7.63;;;1.30;99.90;;;;;;5092866;28;20059;-67
2023/12/03 02:48:33;;;;;;;11.63;7.55;;;1.40;99.90;;;;;;5092814;28;20033;-67
2023/12/03 02:51:00;;;;;;;12.55;7.03;;;1.40;99.90;;;;;;5091533;28;20040;-67
2023/12/03 02:53:26;;;;;;;13.75;7.82;;;1.40;99.90;;;;;;5096027;28;20377;-67
2023/12/03 02:55:53;;;;;;;12.43;6.70;;;1.40;99.90;;;;;;5095634;28;20040;-72
2023/12/03 02:58:20;;;;;;;8.73;4.95;;;1.50;99.90;;;;;;5096700;28;20059;-72
2023/12/03 03:00:47;;;;;;;8.13;4.65;;;1.60;99.90;;;;;;5095066;28;20050;-68
2023/12/03 03:03:14;;;;;;;9.90;4.90;;;1.80;99.90;;;;;;5096431;28;20433;-68
2023/12/03 03:05:40;;;;;;;8.73;4.30;;;1.90;99.90;;;;;;5096450;28;20040;-68
2023/12/03 03:08:07;;;;;;;6.70;4.13;;;2.00;99.90;;;;;;5096059;28;20044;-68
2023/12/03 03:10:34;;;;;;;11.88;4.28;;;2.20;99.90;;;;;;5096590;28;20043;-68
2023/12/03 03:13:01;;;;;;;8.48;3.90;;;2.30;99.90;;;;;;5095752;28;20460;-68
2023/12/03 03:15:27;;;;;;;11.43;4.10;;;2.40;99.90;;;;;;5094527;28;20044;-68
2023/12/03 03:17:54;;;;;;;8.43;4.20;;;2.50;99.90;;;;;;5095998;28;20048;-68
2023/12/03 03:20:22;;;;;;;6.93;3.75;;;2.60;99.90;;;;;;5095873;28;20062;-71
2023/12/03 03:22:49;;;;;;;7.53;4.00;;;2.60;99.90;;;;;;5096002;28;20504;-71
2023/12/03 03:25:16;;;;;;;6.35;3.58;;;2.60;99.90;;;;;;5096273;28;20067;-68
2023/12/03 03:27:43;;;;;;;8.20;3.55;;;2.70;99.90;;;;;;5095867;28;20107;-68
2023/12/03 03:30:10;;;;;;;6.70;2.90;;;2.70;99.90;;;;;;5096138;28;20044;-68
2023/12/03 03:32:36;;;;;;;7.95;3.47;;;2.80;99.90;;;;;;5096269;28;20119;-68
2023/12/03 03:35:03;;;;;;;8.15;3.53;;;2.80;99.90;;;;;;5095964;28;20040;-68
2023/12/03 03:37:30;;;;;;;7.38;3.22;;;2.90;99.90;;;;;;5095441;28;20044;-68
2023/12/03 03:39:57;;;;;;;6.72;3.25;;;2.90;99.90;;;;;;5094371;28;20052;-72
2023/12/03 03:42:24;;;;;;;5.15;3.30;;;3.00;99.90;;;;;;5094440;28;20062;-68
2023/12/03 03:44:50;;;;;;;9.25;3.50;;;3.00;99.90;;;;;;5095421;28;20457;-68
2023/12/03 03:47:17;;;;;;;5.63;3.40;;;3.00;99.90;;;;;;5095564;28;20160;-68
2023/12/03 03:49:44;;;;;;;6.18;3.63;;;3.00;99.90;;;;;;5095098;28;20086;-69
2023/12/03 03:52:11;;;;;;;7.75;3.30;;;3.00;99.90;;;;;;5095310;28;20044;-69
2023/12/03 03:54:37;;;;;;;8.25;3.47;;;3.00;99.90;;;;;;5093909;28;20093;-68
2023/12/03 03:57:04;;;;;;;5.10;2.80;;;3.10;99.90;;;;;;5095239;28;20067;-68
2023/12/03 03:59:31;;;;;;;10.88;3.50;;;3.10;99.90;;;;;;5095252;28;20485;-68
2023/12/03 04:01:58;;;;;;;5.70;3.22;;;3.10;99.90;;;;;;5095158;28;20040;-68
2023/12/03 04:04:24;;;;;;;4.85;2.63;;;3.20;99.90;;;;;;5094786;28;20040;-67
2023/12/03 04:06:51;;;;;;;8.98;2.78;;;3.20;99.90;;;;;;5094806;28;20044;-73
2023/12/03 04:09:18;;;;;;;9.50;2.95;;;3.10;99.90;;;;;;5094495;28;20111;-72
2023/12/03 04:11:45;;;;;;;6.35;3.15;;;3.20;99.90;;;;;;5094883;28;20036;-72
2023/12/03 04:14:12;;;;;;;5.72;2.67;;;3.20;99.90;;;;;;5094982;28;20043;-72
2023/12/03 04:16:39;;;;;;;7.70;2.80;;;3.20;99.90;;;;;;5094742;28;20040;-73
2023/12/03 04:19:06;;;;;;;5.97;2.38;;;3.20;99.90;;;;;;5095309;28;20036;-67
2023/12/03 04:21:33;;;;;;;7.25;3.13;;;3.20;99.90;;;;;;5094734;28;20036;-67
2023/12/03 04:24:00;;;;;;;7.70;2.42;;;3.20;99.90;;;;;;5094667;28;20117;-67
2023/12/03 04:26:27;;;;;;;6.03;2.60;;;3.20;99.90;;;;;;5094885;28;20037;-67
2023/12/03 04:28:54;;;;;;;5.97;2.67;;;3.20;99.90;;;;;;5094362;28;20097;-67
2023/12/03 04:31:22;;;;;;;5.82;2.55;;;3.20;99.90;;;;;;5094788;28;20043;-68
2023/12/03 04:33:49;;;;;;;5.38;2.53;;;3.30;99.90;;;;;;5094930;28;20119;-68
2023/12/03 04:36:16;;;;;;;7.20;2.63;;;3.30;99.90;;;;;;5094406;28;20469;-67
2023/12/03 04:38:43;;;;;;;7.55;2.60;;;3.40;99.90;;;;;;5092882;28;20052;-71
2023/12/03 04:41:10;;;;;;;6.82;3.20;;;3.40;99.90;;;;;;5092592;28;20052;-72
2023/12/03 04:43:36;;;;;;;9.65;3.08;;;3.40;99.90;;;;;;5094220;28;20051;-72
2023/12/03 04:46:03;;;;;;;6.00;2.70;;;3.50;99.90;;;;;;5094417;28;20461;-72
2023/12/03 04:48:30;;;;;;;7.53;3.20;;;3.50;99.90;;;;;;5092489;28;20458;-72
2023/12/03 04:50:57;;;;;;;5.82;2.90;;;3.50;99.90;;;;;;5094335;28;20101;-68
2023/12/03 04:53:23;;;;;;;6.50;2.80;;;3.50;99.90;;;;;;5094196;28;20028;-68
2023/12/03 04:55:50;;;;;;;6.75;3.30;;;3.50;99.90;;;;;;5093861;28;20481;-67
2023/12/03 04:58:17;;;;;;;7.18;2.83;;;3.50;99.90;;;;;;5093967;28;20075;-72
2023/12/03 05:00:44;;;;;;;7.93;3.05;;;3.50;99.90;;;;;;5094461;28;20036;-68
2023/12/03 05:03:10;;;;;;;6.68;3.03;;;3.40;99.90;;;;;;5094376;28;20044;-72
2023/12/03 05:05:37;;;;;;;6.97;3.05;;;3.50;99.90;;;;;;5093698;28;20485;-71
2023/12/03 05:08:04;;;;;;;7.50;2.92;;;3.50;99.90;;;;;;5092058;28;20134;-68
2023/12/03 05:10:31;;;;;;;7.10;2.90;;;3.50;99.90;;;;;;5094001;28;20067;-67
2023/12/03 05:12:58;;;;;;;6.78;3.53;;;3.50;99.90;;;;;;5093669;28;20040;-67
2023/12/03 05:15:24;;;;;;;7.88;3.00;;;3.50;99.90;;;;;;5093506;28;20036;-67
2023/12/03 05:17:51;;;;;;;6.78;3.70;;;3.50;99.90;;;;;;5094202;28;20070;-67
2023/12/03 05:20:18;;;;;;;5.70;3.05;;;3.50;99.90;;;;;;5093870;28;20561;-67
2023/12/03 05:22:45;;;;;;;6.75;3.40;;;3.50;99.90;;;;;;5093642;28;20044;-67
2023/12/03 05:25:11;;;;;;;7.07;3.83;;;3.50;99.90;;;;;;5093536;28;20040;-71
2023/12/03 05:27:38;;;;;;;8.85;3.78;;;3.50;99.90;;;;;;5093385;28;20158;-72
2023/12/03 05:30:05;;;;;;;6.22;3.10;;;3.60;99.90;;;;;;5093522;28;20558;-73
2023/12/03 05:32:32;;;;;;;7.57;3.55;;;3.50;99.90;;;;;;5093708;28;20050;-71
2023/12/03 05:34:59;;;;;;;5.22;3.28;;;3.60;99.90;;;;;;5093932;28;20036;-72
2023/12/03 05:37:28;;;;;;;6.97;3.55;;;3.60;99.90;;;;;;5093649;28;20036;-67
2023/12/03 05:39:55;;;;;;;11.07;3.45;;;3.60;99.90;;;;;;5093177;28;20048;-71
2023/12/03 05:42:22;;;;;;;6.72;3.95;;;3.60;99.90;;;;;;5093854;28;20044;-68
2023/12/03 05:44:49;;;;;;;9.05;3.72;;;3.60;99.90;;;;;;5093884;28;20046;-71
2023/12/03 05:47:15;;;;;;;8.32;3.85;;;3.60;99.90;;;;;;5093671;28;20044;-72
2023/12/03 05:49:42;;;;;;;10.73;3.40;;;3.60;99.90;;;;;;5092095;28;20044;-72
2023/12/03 05:52:09;;;;;;;8.50;3.50;;;3.60;99.90;;;;;;5093387;28;20047;-71
2023/12/03 05:54:36;;;;;;;6.88;3.47;;;3.60;99.90;;;;;;5093533;28;20044;-68
2023/12/03 05:57:02;;;;;;;6.90;3.63;;;3.60;99.90;;;;;;5093638;28;20117;-68
2023/12/03 05:59:29;;;;;;;5.75;3.53;;;3.70;99.90;;;;;;5092943;28;20421;-68
2023/12/03 06:01:56;;;;;;;6.30;3.80;;;3.70;99.90;;;;;;5092061;28;20435;-69
2023/12/03 06:04:23;;;;;;;7.93;3.50;;;3.70;99.90;;;;;;5091712;28;20109;-68
2023/12/03 06:06:50;;;;;;;7.72;3.70;;;3.70;99.90;;;;;;5093192;28;20378;-68
2023/12/03 06:09:16;;;;;;;8.32;3.65;;;3.70;99.90;;;;;;5093524;28;20040;-67
2023/12/03 06:11:43;;;;;;;8.48;3.63;;;3.70;99.90;;;;;;5092033;28;20074;-67
2023/12/03 06:14:10;;;;;;;7.22;4.20;;;3.70;99.90;;;;;;5093570;28;20354;-67
2023/12/03 06:16:37;;;;;;;7.95;4.20;;;3.70;99.90;;;;;;5093315;28;20051;-67
2023/12/03 06:19:03;;;;;;;8.68;3.95;;;3.70;99.90;;;;;;5093335;28;20044;-68
2023/12/03 06:21:30;;;;;;;6.30;3.90;;;3.80;99.90;;;;;;5092941;28;20405;-71
2023/12/03 06:23:57;;;;;;;8.90;3.63;;;3.80;99.90;;;;;;5092676;28;20044;-71
2023/12/03 06:26:24;;;;;;;10.02;4.60;;;3.80;99.90;;;;;;5095058;28;20040;-68
2023/12/03 06:28:51;;;;;;;7.82;3.92;;;3.80;99.90;;;;;;5096630;28;20085;-68
2023/12/03 06:31:17;;;;;;;6.85;3.72;;;3.80;99.90;;;;;;5097375;28;20444;-71
2023/12/03 06:33:46;;;;;;;8.50;3.97;;;3.80;99.90;;;;;;5097237;28;20131;-68
2023/12/03 06:36:13;;;;;;;6.50;3.63;;;3.80;99.90;;;;;;5096729;28;20033;-68
2023/12/03 06:38:40;;;;;;;11.75;4.18;;;3.80;99.90;;;;;;5097125;28;20059;-68
2023/12/03 06:41:07;;;;;;;6.35;3.90;;;3.80;99.90;;;;;;5096453;28;20048;-68
2023/12/03 06:43:34;;;;;;;8.23;3.65;;;3.80;99.90;;;;;;5095674;28;20040;-70
2023/12/03 06:46:01;;;;;;;8.38;4.22;;;3.80;99.90;;;;;;5095383;28;20385;-71
2023/12/03 06:48:28;;;;;;;10.25;5.30;;;3.80;99.90;;;;;;5095060;28;20393;-71
2023/12/03 06:50:55;;;;;;;9.13;4.10;;;3.80;99.90;;;;;;5096735;28;20048;-67
2023/12/03 06:53:21;;;;;;;7.75;3.63;;;3.80;99.90;;;;;;5096956;28;20043;-72
2023/12/03 06:55:48;;;;;;;10.13;3.83;;;3.80;99.90;;;;;;5096612;28;20048;-71
2023/12/03 06:58:15;;;;;;;7.13;3.75;;;3.80;99.90;;;;;;5096181;28;20043;-71
2023/12/03 07:00:42;;;;;;;9.02;3.72;;;3.80;99.90;;;;;;5096488;28;20036;-72
2023/12/03 07:03:09;;;;;;;7.75;3.35;;;3.80;99.90;;;;;;5080781;28;20041;-71
2023/12/03 07:05:36;;;;;;;13.32;4.28;;;3.80;99.90;;;;;;5076478;28;20032;-71
2023/12/03 07:08:03;;;;;;;10.40;3.60;;;3.80;99.90;;;;;;5075847;28;20047;-70
2023/12/03 07:10:30;;;;;;;6.32;3.53;;;3.80;99.90;;;;;;5075939;28;20056;-71
2023/12/03 07:12:57;;;;;;;8.90;3.95;;;3.80;99.90;;;;;;5076193;28;20036;-70
2023/12/03 07:15:23;;;;;;;8.20;3.63;;;3.80;99.90;;;;;;5076105;28;20044;-70
2023/12/03 07:17:50;;;;;;;9.13;3.80;;;3.80;99.90;;;;;;5076071;28;20041;-71
2023/12/03 07:20:20;;;;;;;7.78;3.63;;;3.80;99.90;;;;;;5074646;28;20044;-71
2023/12/03 07:22:47;;;;;;;8.35;3.95;;;3.80;99.90;;;;;;5076274;28;20040;-71
2023/12/03 07:25:14;;;;;;;6.82;3.63;;;3.80;99.90;;;;;;5075793;28;20059;-71
2023/12/03 07:27:41;;;;;;;7.85;3.78;;;3.90;99.90;;;;;;5075320;28;20049;-71
2023/12/03 07:30:07;;;;;;;8.95;4.07;;;3.90;99.90;;;;;;5075290;28;20036;-71
2023/12/03 07:32:35;;;;;;;10.93;4.63;;;3.90;99.90;;;;;;5076005;28;20045;-71
2023/12/03 07:35:01;;;;;;;9.02;4.30;;;3.90;99.90;;;;;;5075628;28;20454;-70
2023/12/03 07:37:29;;;;;;;9.57;4.18;;;3.90;99.90;;;;;;5084677;28;20033;-70
2023/12/03 07:39:56;;;;;;;13.60;4.60;;;3.90;99.90;;;;;;5094325;28;20588;-70
2023/12/03 07:42:23;;;;;;;14.23;4.43;;;4.00;99.90;;;;;;5095398;28;20044;-70
2023/12/03 07:44:49;;;;;;;12.32;5.15;;;4.00;99.90;;;;;;5095698;28;20044;-70
2023/12/03 07:47:16;;;;;;;14.75;4.60;;;4.00;99.90;;;;;;5095832;28;20040;-70
2023/12/03 07:49:43;;;;;;;13.48;5.97;;;4.10;99.90;;;;;;5094052;28;20123;-70
2023/12/03 07:52:10;;;;;;;11.93;4.45;;;4.10;99.90;;;;;;5095599;28;20480;-69
2023/12/03 07:54:37;;;;;;;15.88;6.22;;;4.10;99.90;;;;;;5095305;28;20109;-70
2023/12/03 07:57:04;;;;;;;13.70;4.78;;;4.10;99.90;;;;;;5095602;28;20043;-70
2023/12/03 07:59:31;;;;;;;13.23;4.50;;;4.10;99.90;;;;;;5095229;28;20040;-69
2023/12/03 08:01:58;;;;;;;12.77;5.05;;;4.20;99.90;;;;;;5095224;28;20122;-70
2023/12/03 08:04:25;;;;;;;11.90;4.18;;;4.20;99.90;;;;;;5094714;28;20044;-71
2023/12/03 08:06:52;;;;;;;14.77;4.65;;;4.20;99.90;;;;;;5095520;28;20052;-66
2023/12/03 08:09:19;;;;;;;11.23;4.43;;;4.20;99.90;;;;;;5094936;28;20115;-72
2023/12/03 08:11:46;;;;;;;14.25;4.93;;;4.30;99.90;;;;;;5093509;28;20036;-70
2023/12/03 08:14:15;;;;;;;11.18;4.50;;;4.30;99.90;;;;;;5095134;28;20040;-71
2023/12/03 08:16:42;;;;;;;12.95;4.28;;;4.30;99.90;;;;;;5095313;28;20416;-70
2023/12/03 08:19:09;;;;;;;13.65;4.43;;;4.30;99.90;;;;;;5095165;28;20070;-71
2023/12/03 08:21:36;;;;;;;15.82;4.75;;;4.30;99.90;;;;;;5094797;28;20040;-70
2023/12/03 08:24:03;;;;;;;14.15;4.30;;;4.30;99.90;;;;;;5094786;28;20101;-70
2023/12/03 08:26:30;;;;;;;12.43;4.93;;;4.30;99.90;;;;;;5094674;28;20140;-71
2023/12/03 08:28:57;;;;;;;10.77;4.35;;;4.40;99.90;;;;;;5093662;28;20040;-71
2023/12/03 08:31:24;;;;;;;13.25;4.10;;;4.40;99.90;;;;;;5094970;28;20089;-72
2023/12/03 08:33:50;;;;;;;10.85;4.80;;;4.50;99.90;;;;;;5094557;28;20036;-71
2023/12/03 08:36:18;;;;;;;11.63;4.50;;;4.50;99.90;;;;;;5094304;28;20044;-71
2023/12/03 08:38:45;;;;;;;10.43;4.88;;;4.60;99.90;;;;;;5092902;28;20036;-68
2023/12/03 08:41:12;;;;;;;15.45;4.70;;;4.60;99.90;;;;;;5094117;28;20051;-70
2023/12/03 08:43:38;;;;;;;14.02;4.18;;;4.60;99.90;;;;;;5094751;28;20048;-70
2023/12/03 08:46:05;;;;;;;12.05;4.80;;;4.70;99.90;;;;;;5094640;28;20036;-71
2023/12/03 08:48:32;;;;;;;16.10;5.50;;;4.70;99.90;;;;;;5094016;28;20230;-70
2023/12/03 08:50:59;;;;;;;13.18;4.82;;;4.70;99.90;;;;;;5093266;28;20036;-71
2023/12/03 08:53:26;;;;;;;18.92;6.13;;;4.70;99.90;;;;;;5093170;28;20093;-67
2023/12/03 08:55:52;;;;;;;19.40;5.85;;;4.80;99.90;;;;;;5093074;28;20123;-71
2023/12/03 08:58:19;;;;;;;16.23;5.88;;;4.80;99.90;;;;;;5094140;28;20094;-67
2023/12/03 09:00:46;;;;;;;15.43;6.63;;;4.80;99.90;;;;;;5094019;28;20051;-70
2023/12/03 09:03:13;;;;;;;19.27;8.23;;;4.90;99.90;;;;;;5076061;28;20048;-71
2023/12/03 09:05:43;;;;;;;22.13;8.25;;;4.90;99.90;;;;;;5093061;28;20040;-67
2023/12/03 09:08:10;;;;;;;24.75;11.38;;;5.00;99.90;;;;;;5093624;28;20097;-68
2023/12/03 09:10:37;;;;;;;20.10;7.40;;;5.00;99.90;;;;;;5093710;28;20461;-70
2023/12/03 09:13:03;;;;;;;20.45;8.25;;;5.00;99.90;;;;;;5093763;28;20042;-68
2023/12/03 09:15:30;;;;;;;18.35;7.35;;;5.10;99.90;;;;;;5094034;28;20437;-71
2023/12/03 09:17:57;;;;;;;17.20;7.20;;;5.10;99.90;;;;;;5093628;28;20110;-71
2023/12/03 09:20:24;;;;;;;20.38;6.55;;;5.20;99.90;;;;;;5093572;28;20040;-70
2023/12/03 09:22:51;;;;;;;20.75;7.25;;;5.20;99.90;;;;;;5093953;28;20044;-70
2023/12/03 09:25:18;;;;;;;17.48;6.45;;;5.30;99.90;;;;;;5094111;28;20105;-68
2023/12/03 09:27:45;;;;;;;15.98;6.85;;;5.30;99.90;;;;;;5093800;28;20036;-67
2023/12/03 09:30:11;;;;;;;16.92;7.35;;;5.30;99.90;;;;;;5092526;28;20048;-67
2023/12/03 09:32:38;;;;;;;16.23;6.38;;;5.30;99.90;;;;;;5092363;28;20036;-70
2023/12/03 09:35:05;;;;;;;20.17;6.75;;;5.40;99.90;;;;;;5094027;28;20044;-70
2023/12/03 09:37:32;;;;;;;15.93;6.40;;;5.40;99.90;;;;;;5092774;28;20052;-71
2023/12/03 09:39:59;;;;;;;17.45;6.50;;;5.40;99.90;;;;;;5093391;28;20055;-70
2023/12/03 09:42:26;;;;;;;17.77;6.68;;;5.50;99.90;;;;;;5093459;28;20032;-70
2023/12/03 09:44:53;;;;;;;16.48;6.95;;;5.50;99.90;;;;;;5093933;28;20109;-71
2023/12/03 09:47:20;;;;;;;14.23;6.28;;;5.50;99.90;;;;;;5093792;28;20134;-70
2023/12/03 09:49:47;;;;;;;16.58;7.05;;;5.60;99.90;;;;;;5092016;28;20036;-71
2023/12/03 09:52:14;;;;;;;16.95;6.72;;;5.60;99.90;;;;;;5093537;28;20485;-68
2023/12/03 09:54:40;;;;;;;17.90;7.72;;;5.70;99.90;;;;;;5092376;28;20109;-71
2023/12/03 09:57:07;;;;;;;18.63;7.57;;;5.80;99.90;;;;;;5093889;28;20115;-70
2023/12/03 09:59:34;;;;;;;17.08;7.28;;;5.80;99.90;;;;;;5092387;28;20048;-69
2023/12/03 10:02:01;;;;;;;21.33;7.53;;;5.90;99.90;;;;;;5095809;28;20043;-68
2023/12/03 10:04:28;;;;;;;18.65;8.02;;;6.00;99.90;;;;;;5097185;28;20079;-71
2023/12/03 10:06:55;;;;;;;23.60;8.18;;;6.00;99.90;;;;;;5097578;28;20054;-70
2023/12/03 10:09:22;;;;;;;15.57;7.68;;;6.10;99.90;;;;;;5097872;28;20066;-67
2023/12/03 10:11:49;;;;;;;18.88;7.65;;;6.20;99.90;;;;;;5097414;28;20413;-71
2023/12/03 10:14:15;;;;;;;14.40;7.28;;;6.20;99.90;;;;;;5097603;28;20127;-71
2023/12/03 10:16:42;;;;;;;16.35;7.32;;;6.30;99.90;;;;;;5097475;28;20458;-68
2023/12/03 10:19:09;;;;;;;22.25;7.63;;;6.30;99.90;;;;;;5096198;28;20048;-66
2023/12/03 10:21:36;;;;;;;15.30;6.82;;;6.30;99.90;;;;;;5097215;28;20036;-68
2023/12/03 10:24:04;;;;;;;12.88;6.40;;;6.40;99.90;;;;;;5097372;28;20044;-67
2023/12/03 10:26:31;;;;;;;15.23;7.30;;;6.50;99.90;;;;;;5097715;28;20066;-71
2023/12/03 10:28:58;;;;;;;13.65;6.70;;;6.50;99.90;;;;;;5096836;28;20032;-72
2023/12/03 10:31:25;;;;;;;18.70;7.18;;;6.60;99.90;;;;;;5097493;28;20032;-71
2023/12/03 10:33:51;;;;;;;15.23;6.60;;;6.60;99.90;;;;;;5097492;28;20044;-68
2023/12/03 10:36:18;;;;;;;13.88;6.35;;;6.60;99.90;;;;;;5097339;28;20036;-70
2023/12/03 10:38:45;;;;;;;16.00;6.40;;;6.70;99.90;;;;;;5097415;28;20047;-67
2023/12/03 10:41:15;;;;;;;11.90;5.93;;;6.70;99.90;;;;;;5096569;28;20063;-70
2023/12/03 10:43:42;;;;;;;13.95;5.30;;;6.70;99.90;;;;;;5097425;28;20040;-68
2023/12/03 10:46:09;;;;;;;11.13;5.75;;;6.80;99.90;;;;;;5096704;28;20382;-70
2023/12/03 10:48:36;;;;;;;11.65;5.45;;;6.80;99.90;;;;;;5097050;28;20500;-68
2023/12/03 10:51:04;;;;;;;8.98;5.25;;;6.80;99.90;;;;;;5096538;28;20089;-69
2023/12/03 10:53:30;;;;;;;10.90;5.18;;;6.80;99.90;;;;;;5091053;28;20090;-64
2023/12/03 10:55:59;;;;;;;12.60;4.80;;;6.90;99.90;;;;;;5076701;28;20048;-69
2023/12/03 10:58:26;;;;;;;9.77;4.70;;;6.80;99.90;;;;;;5076380;28;20079;-64
2023/12/03 11:00:55;;;;;;;13.23;4.60;;;6.90;99.90;;;;;;5076026;28;20101;-70
2023/12/03 11:03:23;;;;;;;11.48;4.57;;;6.90;99.90;;;;;;5076257;28;20076;-71
2023/12/03 11:05:51;;;;;;;11.73;5.10;;;6.90;99.90;;;;;;5075075;28;20458;-66
2023/12/03 11:08:18;;;;;;;12.00;5.20;;;6.90;99.90;;;;;;5090650;28;20048;-70
2023/12/03 11:10:45;;;;;;;11.65;4.80;;;6.80;99.90;;;;;;5095665;28;20067;-73
2023/12/03 11:13:12;;;;;;;13.88;4.65;;;6.80;99.90;;;;;;5088839;28;20511;-70
2023/12/03 11:15:38;;;;;;;9.48;4.82;;;6.80;99.90;;;;;;5095531;28;20043;-70
2023/12/03 11:18:05;;;;;;;12.27;5.03;;;6.90;99.90;;;;;;5089364;28;20040;-70
2023/12/03 11:20:32;;;;;;;8.23;4.25;;;6.90;99.90;;;;;;5094277;28;20393;-65
2023/12/03 11:23:00;;;;;;;9.00;4.13;;;6.90;99.90;;;;;;5095318;28;20044;-70
2023/12/03 11:25:26;;;;;;;8.90;4.68;;;6.90;99.90;;;;;;5090040;28;20522;-70
2023/12/03 11:27:53;;;;;;;8.68;4.38;;;6.90;99.90;;;;;;5080687;28;20032;-66
2023/12/03 11:30:20;;;;;;;8.60;4.55;;;6.90;99.90;;;;;;5075924;28;20040;-66
2023/12/03 11:32:47;;;;;;;13.52;4.25;;;6.90;99.90;;;;;;5088657;28;20533;-66
2023/12/03 11:35:14;;;;;;;8.82;4.40;;;6.90;99.90;;;;;;5095233;28;20089;-71
2023/12/03 11:37:42;;;;;;;9.02;3.90;;;6.90;99.90;;;;;;5089975;28;20376;-67
2023/12/03 11:40:09;;;;;;;9.50;3.58;;;7.00;99.90;;;;;;5094792;28;20450;-65
2023/12/03 11:42:35;;;;;;;8.57;3.95;;;7.00;99.90;;;;;;5088141;28;20119;-71
2023/12/03 11:45:02;;;;;;;10.55;3.53;;;7.00;99.90;;;;;;5095058;28;20097;-66
2023/12/03 11:47:29;;;;;;;9.13;3.92;;;7.00;99.90;;;;;;5075525;28;20124;-73
2023/12/03 11:49:56;;;;;;;10.77;3.80;;;7.00;99.90;;;;;;5081703;28;20040;-65
2023/12/03 11:52:23;;;;;;;10.25;3.83;;;7.00;99.90;;;;;;5075408;28;20047;-66
2023/12/03 11:54:49;;;;;;;9.50;3.60;;;7.10;99.90;;;;;;5075194;28;20044;-72
2023/12/03 11:57:16;;;;;;;9.10;3.50;;;7.10;99.90;;;;;;5091223;28;20544;-64
2023/12/03 11:59:43;;;;;;;7.63;4.65;;;7.20;99.90;;;;;;5075601;28;20452;-64
2023/12/03 12:02:10;;;;;;;6.85;3.50;;;7.20;99.90;;;;;;5074174;28;20436;-72
2023/12/03 12:04:37;;;;;;;5.43;3.50;;;7.20;99.90;;;;;;5092053;28;20497;-65
2023/12/03 12:07:04;;;;;;;7.13;3.25;;;7.30;99.90;;;;;;5094586;28;20135;-70
2023/12/03 12:09:31;;;;;;;6.80;2.70;;;7.30;99.90;;;;;;5093683;28;20044;-70
2023/12/03 12:11:58;;;;;;;5.15;2.60;;;7.30;99.90;;;;;;5094511;28;20557;-70
2023/12/03 12:14:24;;;;;;;7.82;2.55;;;7.30;99.90;;;;;;5094305;28;20040;-65
2023/12/03 12:16:52;;;;;;;6.70;2.70;;;7.30;99.90;;;;;;5089324;28;20052;-63
2023/12/03 12:19:18;;;;;;;6.07;2.60;;;7.40;99.90;;;;;;5079584;28;20446;-63
2023/12/03 12:21:45;;;;;;;5.95;2.83;;;7.40;99.90;;;;;;5088940;28;20037;-70
2023/12/03 12:24:12;;;;;;;5.68;2.47;;;7.50;99.90;;;;;;5092495;28;20047;-70
2023/12/03 12:26:39;;;;;;;4.85;2.40;;;7.50;99.90;;;;;;5094157;28;20040;-71
2023/12/03 12:29:06;;;;;;;7.65;2.70;;;7.50;99.90;;;;;;5083195;28;20409;-63
2023/12/03 12:31:33;;;;;;;5.22;2.65;;;7.50;99.90;;;;;;5074339;28;20033;-71
2023/12/03 12:33:59;;;;;;;7.88;2.47;;;7.50;99.90;;;;;;5074460;28;20135;-71
2023/12/03 12:36:26;;;;;;;7.00;2.65;;;7.60;99.90;;;;;;5084439;28;20119;-63
2023/12/03 12:38:53;;;;;;;5.85;2.65;;;7.60;99.90;;;;;;5093569;28;20042;-69
2023/12/03 12:41:21;;;;;;;6.63;2.15;;;7.60;99.90;;;;;;5075510;28;20058;-63
2023/12/03 12:43:47;;;;;;;6.35;2.00;;;7.60;99.90;;;;;;5093828;28;20066;-72
2023/12/03 12:46:14;;;;;;;5.47;2.50;;;7.60;99.90;;;;;;5093995;28;20115;-71
2023/12/03 12:48:41;;;;;;;5.10;1.90;;;7.60;99.90;;;;;;5088734;28;20487;-72